createdAt,value
2023-02-25T00:01:24.626Z,8.09
2023-02-25T00:03:53.888Z,8.08
2023-02-25T00:06:22.650Z,8.05
2023-02-25T00:08:51.351Z,8.08
2023-02-25T00:11:21.195Z,8.07
2023-02-25T00:13:48.849Z,8.06
2023-02-25T00:16:16.552Z,8.10
2023-02-25T00:18:46.730Z,8.12
2023-02-25T00:21:16.273Z,8.13
2023-02-25T00:23:46.018Z,8.16
2023-02-25T00:26:14.552Z,8.16
2023-02-25T00:28:43.196Z,8.26
2023-02-25T00:31:17.488Z,8.21
2023-02-25T00:33:45.436Z,8.22
2023-02-25T00:36:19.015Z,8.24
2023-02-25T00:38:48.495Z,8.27
2023-02-25T00:41:19.281Z,8.25
2023-02-25T00:43:52.741Z,8.28
2023-02-25T00:46:21.432Z,8.27
2023-02-25T00:48:49.568Z,8.31
2023-02-25T00:51:19.731Z,8.30
2023-02-25T00:53:47.758Z,8.26
2023-02-25T00:56:16.556Z,8.35
2023-02-25T00:58:45.284Z,8.37
2023-02-25T01:01:30.423Z,8.33
2023-02-25T01:03:58.529Z,8.37
2023-02-25T01:06:27.890Z,8.46
2023-02-25T01:08:55.801Z,8.34
2023-02-25T01:11:29.548Z,8.39
2023-02-25T01:14:00.540Z,8.40
2023-02-25T01:16:30.100Z,8.38
2023-02-25T01:19:20.882Z,8.39
2023-02-25T01:21:51.701Z,8.37
2023-02-25T01:24:22.452Z,8.38
2023-02-25T01:26:52.167Z,8.37
2023-02-25T01:29:22.614Z,8.38
2023-02-25T01:31:55.832Z,8.39
2023-02-25T01:34:24.054Z,8.40
2023-02-25T01:36:51.913Z,8.41
2023-02-25T01:39:22.286Z,8.47
2023-02-25T01:41:53.472Z,8.50
2023-02-25T01:44:35.264Z,8.48
2023-02-25T01:47:03.344Z,8.53
2023-02-25T01:49:40.323Z,8.51
2023-02-25T01:52:11.793Z,8.45
2023-02-25T01:54:40.354Z,8.42
2023-02-25T01:57:10.441Z,8.40
2023-02-25T01:59:39.556Z,8.46
2023-02-25T02:02:13.433Z,8.45
2023-02-25T02:04:43.331Z,8.49
2023-02-25T02:07:11.362Z,8.59
2023-02-25T02:09:40.386Z,8.68
2023-02-25T02:12:08.446Z,8.84
2023-02-25T02:14:39.472Z,8.78
2023-02-25T02:17:18.486Z,8.85
2023-02-25T02:20:00.901Z,8.97
2023-02-25T02:22:31.332Z,9.04
2023-02-25T02:25:36.970Z,9.26
2023-02-25T02:28:10.696Z,9.27
2023-02-25T02:31:09.283Z,9.29
2023-02-25T02:33:43.720Z,9.32
2023-02-25T02:36:24.998Z,9.32
2023-02-25T02:39:16.640Z,9.28
2023-02-25T02:42:17.003Z,9.22
2023-02-25T02:44:44.507Z,9.26
2023-02-25T02:47:16.785Z,9.23
2023-02-25T02:49:48.919Z,9.26
2023-02-25T02:52:21.308Z,9.20
2023-02-25T02:54:53.531Z,9.12
2023-02-25T02:57:22.433Z,9.02
2023-02-25T03:00:13.306Z,8.97
2023-02-25T03:02:42.960Z,8.90
2023-02-25T03:05:13.105Z,8.92
2023-02-25T03:07:47.987Z,8.81
2023-02-25T03:10:18.820Z,8.74
2023-02-25T03:12:47.475Z,8.74
2023-02-25T03:15:15.149Z,8.84
2023-02-25T03:17:46.874Z,8.82
2023-02-25T03:20:28.568Z,8.85
2023-02-25T03:22:59.444Z,8.83
2023-02-25T03:25:33.760Z,8.77
2023-02-25T03:28:30.636Z,8.72
2023-02-25T03:31:06.600Z,8.69
2023-02-25T03:33:41.351Z,8.59
2023-02-25T03:36:14.234Z,8.59
2023-02-25T03:38:45.387Z,8.56
2023-02-25T03:41:51.817Z,8.54
2023-02-25T03:44:42.540Z,8.54
2023-02-25T03:47:11.523Z,8.48
2023-02-25T03:49:56.011Z,8.55
2023-02-25T03:52:25.121Z,8.54
2023-02-25T03:54:56.115Z,8.59
2023-02-25T03:57:29.379Z,8.66
2023-02-25T03:59:57.106Z,8.70
2023-02-25T04:02:28.512Z,8.80
2023-02-25T04:04:57.649Z,8.85
2023-02-25T04:07:25.627Z,8.85
2023-02-25T04:09:53.473Z,9.12
2023-02-25T04:12:21.322Z,9.13
2023-02-25T04:14:48.858Z,9.16
2023-02-25T04:17:16.841Z,9.15
2023-02-25T04:19:45.466Z,9.09
2023-02-25T04:22:13.114Z,9.21
2023-02-25T04:24:40.637Z,9.19
2023-02-25T04:27:08.483Z,9.26
2023-02-25T04:29:36.137Z,9.26
2023-02-25T04:32:03.863Z,9.38
2023-02-25T04:34:31.687Z,9.35
2023-02-25T04:37:02.270Z,9.38
2023-02-25T04:39:30.013Z,9.33
2023-02-25T04:41:58.267Z,9.40
2023-02-25T04:44:26.176Z,9.49
2023-02-25T04:46:53.775Z,9.59
2023-02-25T04:49:22.533Z,9.62
2023-02-25T04:51:51.626Z,9.60
2023-02-25T04:54:20.311Z,9.57
2023-02-25T04:56:48.652Z,9.53
2023-02-25T04:59:16.527Z,9.70
2023-02-25T05:01:44.055Z,9.63
2023-02-25T05:04:11.993Z,9.55
2023-02-25T05:06:39.513Z,9.51
2023-02-25T05:09:09.293Z,9.49
2023-02-25T05:11:38.182Z,9.44
2023-02-25T05:14:05.761Z,9.39
2023-02-25T05:16:33.495Z,9.30
2023-02-25T05:19:01.359Z,9.27
2023-02-25T05:21:29.585Z,9.19
2023-02-25T05:23:57.256Z,9.14
2023-02-25T05:26:25.655Z,9.11
2023-02-25T05:28:55.323Z,9.07
2023-02-25T05:31:24.854Z,9.00
2023-02-25T05:33:53.120Z,8.98
2023-02-25T05:36:21.178Z,8.97
2023-02-25T05:38:49.151Z,8.97
2023-02-25T05:41:17.183Z,8.95
2023-02-25T05:43:45.929Z,8.93
2023-02-25T05:46:14.042Z,8.99
2023-02-25T05:48:45.996Z,8.91
2023-02-25T05:51:19.429Z,8.94
2023-02-25T05:53:49.132Z,9.00
2023-02-25T05:56:22.105Z,8.95
2023-02-25T05:58:50.232Z,8.99
2023-02-25T06:01:24.031Z,9.03
2023-02-25T06:03:52.473Z,9.07
2023-02-25T06:06:24.790Z,9.08
2023-02-25T06:08:53.541Z,9.06
2023-02-25T06:11:23.795Z,9.08
2023-02-25T06:13:53.074Z,9.13
2023-02-25T06:16:21.957Z,9.15
2023-02-25T06:18:51.433Z,9.16
2023-02-25T06:21:19.426Z,9.16
2023-02-25T06:23:50.204Z,9.32
2023-02-25T06:26:18.405Z,9.32
2023-02-25T06:28:46.150Z,9.36
2023-02-25T06:31:16.757Z,9.44
2023-02-25T06:33:45.701Z,9.47
2023-02-25T06:36:13.677Z,9.45
2023-02-25T06:38:43.277Z,9.56
2023-02-25T06:41:15.541Z,9.72
2023-02-25T06:43:44.512Z,9.75
2023-02-25T06:46:14.499Z,9.75
2023-02-25T06:48:42.072Z,9.89
2023-02-25T06:51:10.706Z,9.91
2023-02-25T06:53:43.269Z,9.89
2023-02-25T06:56:13.005Z,9.96
2023-02-25T06:58:40.926Z,9.97
2023-02-25T07:01:10.062Z,9.99
2023-02-25T07:03:38.049Z,10.02
2023-02-25T07:06:06.167Z,10.14
2023-02-25T07:08:34.199Z,10.31
2023-02-25T07:11:17.341Z,10.48
2023-02-25T07:13:49.043Z,10.56
2023-02-25T07:16:17.552Z,10.73
2023-02-25T07:18:45.302Z,10.88
2023-02-25T07:21:13.864Z,10.95
2023-02-25T07:23:42.646Z,11.09
2023-02-25T07:26:12.141Z,11.14
2023-02-25T07:28:40.283Z,11.26
2023-02-25T07:31:17.295Z,11.46
2023-02-25T07:33:45.460Z,11.72
2023-02-25T07:36:13.983Z,11.81
2023-02-25T07:38:41.863Z,11.95
2023-02-25T07:41:15.393Z,12.00
2023-02-25T07:43:43.887Z,11.88
2023-02-25T07:46:13.486Z,11.60
2023-02-25T07:48:41.603Z,11.03
2023-02-25T07:51:16.176Z,10.82
2023-02-25T07:53:43.877Z,10.67
2023-02-25T07:56:11.958Z,10.62
2023-02-25T07:58:39.676Z,10.50
2023-02-25T08:01:12.821Z,9.28
2023-02-25T08:03:40.661Z,8.26
2023-02-25T08:06:08.744Z,7.78
2023-02-25T08:08:38.194Z,7.58
2023-02-25T08:11:07.824Z,7.47
2023-02-25T08:13:35.832Z,7.50
2023-02-25T08:16:07.528Z,7.40
2023-02-25T08:18:35.829Z,7.30
2023-02-25T08:21:04.642Z,7.27
2023-02-25T08:23:32.280Z,7.22
2023-02-25T08:26:00.871Z,7.12
2023-02-25T08:28:34.293Z,7.00
2023-02-25T08:31:04.327Z,6.91
2023-02-25T08:33:32.052Z,6.95
2023-02-25T08:36:14.249Z,6.92
2023-02-25T08:38:42.601Z,6.97
2023-02-25T08:41:10.586Z,6.91
2023-02-25T08:43:39.063Z,6.88
2023-02-25T08:46:06.983Z,6.91
2023-02-25T08:48:35.157Z,6.99
2023-02-25T08:51:10.090Z,6.92
2023-02-25T08:53:39.888Z,6.93
2023-02-25T08:56:10.012Z,7.05
2023-02-25T08:58:38.495Z,7.06
2023-02-25T09:01:15.642Z,7.24
2023-02-25T09:03:55.259Z,7.24
2023-02-25T09:06:24.597Z,7.29
2023-02-25T09:08:52.720Z,7.30
2023-02-25T09:11:21.656Z,7.36
2023-02-25T09:13:49.297Z,7.37
2023-02-25T09:16:17.624Z,7.24
2023-02-25T09:18:50.333Z,7.28
2023-02-25T09:21:19.100Z,7.43
2023-02-25T09:23:47.803Z,7.47
2023-02-25T09:26:15.395Z,7.31
2023-02-25T09:28:43.471Z,7.23
2023-02-25T09:31:11.242Z,7.13
2023-02-25T09:33:41.977Z,6.97
2023-02-25T09:36:15.356Z,6.92
2023-02-25T09:38:44.015Z,6.84
2023-02-25T09:41:32.172Z,6.92
2023-02-25T09:44:29.882Z,6.89
2023-02-25T09:47:04.466Z,6.91
2023-02-25T09:49:37.307Z,6.96
2023-02-25T09:52:32.255Z,7.02
2023-02-25T09:55:34.558Z,7.06
2023-02-25T09:58:11.777Z,6.90
2023-02-25T10:00:56.238Z,6.86
2023-02-25T10:03:51.872Z,6.77
2023-02-25T10:06:39.091Z,6.79
2023-02-25T10:09:22.788Z,6.67
2023-02-25T10:11:53.564Z,6.43
2023-02-25T10:14:45.851Z,6.28
2023-02-25T10:17:44.463Z,6.09
2023-02-25T10:20:27.772Z,5.86
2023-02-25T10:23:40.368Z,5.72
2023-02-25T10:26:24.642Z,5.44
2023-02-25T10:29:00.727Z,5.35
2023-02-25T10:31:30.057Z,5.42
2023-02-25T10:34:18.193Z,5.41
2023-02-25T10:36:55.700Z,5.51
2023-02-25T10:39:24.162Z,5.53
2023-02-25T10:41:52.043Z,5.44
2023-02-25T10:44:19.576Z,5.52
2023-02-25T10:47:00.589Z,5.52
2023-02-25T10:49:30.358Z,5.44
2023-02-25T10:52:04.635Z,5.30
2023-02-25T10:54:34.843Z,5.26
2023-02-25T10:57:08.821Z,5.17
2023-02-25T10:59:39.664Z,5.13
2023-02-25T11:02:23.338Z,5.09
2023-02-25T11:04:52.594Z,5.11
2023-02-25T11:07:34.184Z,5.04
2023-02-25T11:10:11.175Z,4.94
2023-02-25T11:12:46.125Z,5.03
2023-02-25T11:15:20.266Z,4.95
2023-02-25T11:17:48.138Z,5.04
2023-02-25T11:20:24.522Z,5.02
2023-02-25T11:22:53.778Z,4.99
2023-02-25T11:25:41.247Z,4.89
2023-02-25T11:28:28.817Z,4.91
2023-02-25T11:31:09.646Z,4.85
2023-02-25T11:33:40.990Z,4.85
2023-02-25T11:36:09.905Z,4.74
2023-02-25T11:38:39.911Z,4.77
2023-02-25T11:41:24.737Z,4.75
2023-02-25T11:43:54.349Z,4.86
2023-02-25T11:46:25.430Z,4.94
2023-02-25T11:49:18.646Z,5.04
2023-02-25T11:52:08.486Z,5.24
2023-02-25T11:54:42.146Z,5.21
2023-02-25T11:57:21.563Z,5.57
2023-02-25T12:00:20.776Z,5.60
2023-02-25T12:02:55.670Z,5.48
2023-02-25T12:05:41.884Z,5.58
2023-02-25T12:08:15.718Z,5.65
2023-02-25T12:11:15.717Z,5.75
2023-02-25T12:14:03.029Z,6.06
2023-02-25T12:16:39.001Z,6.04
2023-02-25T12:19:15.464Z,6.10
2023-02-25T12:22:13.103Z,6.17
2023-02-25T12:25:02.328Z,6.23
2023-02-25T12:27:54.589Z,6.10
2023-02-25T12:30:53.978Z,6.05
2023-02-25T12:33:59.167Z,6.06
2023-02-25T12:36:48.053Z,5.83
2023-02-25T12:39:24.719Z,5.89
2023-02-25T12:41:58.840Z,5.98
2023-02-25T12:44:57.287Z,5.89
2023-02-25T12:47:44.688Z,5.75
2023-02-25T12:50:18.995Z,5.54
2023-02-25T12:52:58.522Z,5.54
2023-02-25T12:55:55.619Z,5.55
2023-02-25T12:58:28.211Z,5.69
2023-02-25T13:01:13.062Z,5.79
2023-02-25T13:04:09.354Z,5.91
2023-02-25T13:06:55.608Z,6.01
2023-02-25T13:10:01.427Z,6.01
2023-02-25T13:12:42.624Z,5.90
2023-02-25T13:15:29.419Z,6.00
2023-02-25T13:18:07.206Z,6.06
2023-02-25T13:20:47.071Z,6.17
2023-02-25T13:23:17.573Z,6.18
2023-02-25T13:25:51.012Z,6.16
2023-02-25T13:28:54.784Z,6.25
2023-02-25T13:31:50.307Z,6.24
2023-02-25T13:34:50.727Z,6.31
2023-02-25T13:37:27.847Z,6.31
2023-02-25T13:40:29.537Z,6.24
2023-02-25T13:43:06.356Z,6.30
2023-02-25T13:46:00.030Z,6.31
2023-02-25T13:48:52.642Z,6.33
2023-02-25T13:51:58.502Z,6.16
2023-02-25T13:54:42.266Z,6.18
2023-02-25T13:57:44.519Z,6.19
2023-02-25T14:00:31.589Z,5.97
2023-02-25T14:03:34.272Z,6.00
2023-02-25T14:06:02.036Z,6.11
2023-02-25T14:08:48.710Z,6.08
2023-02-25T14:11:37.770Z,6.06
2023-02-25T14:14:11.507Z,6.04
2023-02-25T14:17:09.772Z,5.95
2023-02-25T14:19:49.616Z,6.00
2023-02-25T14:22:29.460Z,6.06
2023-02-25T14:25:35.478Z,6.13
2023-02-25T14:28:23.008Z,6.16
2023-02-25T14:31:03.169Z,6.16
2023-02-25T14:33:49.609Z,6.17
2023-02-25T14:36:55.038Z,6.07
2023-02-25T14:39:27.580Z,6.09
2023-02-25T14:42:18.416Z,5.97
2023-02-25T14:44:55.108Z,6.06
2023-02-25T14:47:32.714Z,6.16
2023-02-25T14:50:13.587Z,6.23
2023-02-25T14:52:53.452Z,6.25
2023-02-25T14:55:39.279Z,6.23
2023-02-25T14:58:22.309Z,6.14
2023-02-25T15:01:28.504Z,5.87
2023-02-25T15:04:35.606Z,6.02
2023-02-25T15:07:18.164Z,5.84
2023-02-25T15:10:07.618Z,5.96
2023-02-25T15:12:53.958Z,5.86
2023-02-25T15:15:25.100Z,5.83
2023-02-25T15:18:17.702Z,5.89
2023-02-25T15:20:45.959Z,5.62
2023-02-25T15:23:16.550Z,5.64
2023-02-25T15:25:53.970Z,5.65
2023-02-25T15:28:30.747Z,5.55
2023-02-25T15:30:58.956Z,5.62
2023-02-25T15:33:40.401Z,5.48
2023-02-25T15:36:14.036Z,5.50
2023-02-25T15:38:51.800Z,5.45
2023-02-25T15:41:34.708Z,5.30
2023-02-25T15:44:08.533Z,5.35
2023-02-25T15:46:36.019Z,5.31
2023-02-25T15:49:05.527Z,5.29
2023-02-25T15:51:53.950Z,5.25
2023-02-25T15:54:46.177Z,5.24
2023-02-25T15:57:13.820Z,5.28
2023-02-25T15:59:49.137Z,5.35
2023-02-25T16:02:29.150Z,5.30
2023-02-25T16:05:09.307Z,5.35
2023-02-25T16:07:42.759Z,5.26
2023-02-25T16:10:23.475Z,5.20
2023-02-25T16:12:54.674Z,5.19
2023-02-25T16:15:33.854Z,5.23
2023-02-25T16:18:14.203Z,5.23
2023-02-25T16:20:47.350Z,5.20
2023-02-25T16:23:16.014Z,5.25
2023-02-25T16:26:08.563Z,5.17
2023-02-25T16:29:00.882Z,5.27
2023-02-25T16:31:36.306Z,5.06
2023-02-25T16:34:05.453Z,5.17
2023-02-25T16:36:41.469Z,5.08
2023-02-25T16:39:25.017Z,5.15
2023-02-25T16:41:53.611Z,5.03
2023-02-25T16:44:26.926Z,4.99
2023-02-25T16:46:55.298Z,5.01
2023-02-25T16:49:29.015Z,4.95
2023-02-25T16:51:58.306Z,4.97
2023-02-25T16:54:31.121Z,4.79
2023-02-25T16:57:01.980Z,4.77
2023-02-25T16:59:34.839Z,4.83
2023-02-25T17:02:20.240Z,4.61
2023-02-25T17:04:53.374Z,4.54
2023-02-25T17:07:27.884Z,4.56
2023-02-25T17:10:02.006Z,4.61
2023-02-25T17:12:47.637Z,4.54
2023-02-25T17:15:17.091Z,4.56
2023-02-25T17:17:45.776Z,4.61
2023-02-25T17:20:24.390Z,4.54
2023-02-25T17:22:55.157Z,4.54
2023-02-25T17:25:27.443Z,4.52
2023-02-25T17:27:58.843Z,4.48
2023-02-25T17:30:48.068Z,4.44
2023-02-25T17:33:19.060Z,4.42
2023-02-25T17:35:48.140Z,4.40
2023-02-25T17:38:20.029Z,4.36
2023-02-25T17:40:47.920Z,4.37
2023-02-25T17:43:18.925Z,4.29
2023-02-25T17:46:01.536Z,4.34
2023-02-25T17:48:32.347Z,4.28
2023-02-25T17:51:03.881Z,4.34
2023-02-25T17:53:48.485Z,4.24
2023-02-25T17:56:22.855Z,4.24
2023-02-25T17:58:52.702Z,4.14
2023-02-25T18:01:30.837Z,4.16
2023-02-25T18:04:05.558Z,4.17
2023-02-25T18:06:52.203Z,4.06
2023-02-25T18:09:40.991Z,4.18
2023-02-25T18:12:27.169Z,4.12
2023-02-25T18:15:15.747Z,4.07
2023-02-25T18:17:47.891Z,4.01
2023-02-25T18:20:30.166Z,4.09
2023-02-25T18:23:06.654Z,4.00
2023-02-25T18:25:45.684Z,3.96
2023-02-25T18:28:18.168Z,3.93
2023-02-25T18:30:46.127Z,3.87
2023-02-25T18:33:15.502Z,3.88
2023-02-25T18:35:45.429Z,3.84
2023-02-25T18:38:21.138Z,3.84
2023-02-25T18:40:50.312Z,3.76
2023-02-25T18:43:20.600Z,3.77
2023-02-25T18:45:48.974Z,3.78
2023-02-25T18:48:16.726Z,3.72
2023-02-25T18:50:44.999Z,3.66
2023-02-25T18:53:18.362Z,3.72
2023-02-25T18:55:46.690Z,3.74
2023-02-25T18:58:16.500Z,3.81
2023-02-25T19:00:47.832Z,3.75
2023-02-25T19:03:34.291Z,3.69
2023-02-25T19:06:04.412Z,3.61
2023-02-25T19:08:32.291Z,3.56
2023-02-25T19:11:00.291Z,3.60
2023-02-25T19:13:36.971Z,3.53
2023-02-25T19:16:05.780Z,3.55
2023-02-25T19:18:33.721Z,3.54
2023-02-25T19:21:01.585Z,3.55
2023-02-25T19:23:29.392Z,3.36
2023-02-25T19:25:59.785Z,3.40
2023-02-25T19:28:28.201Z,3.37
2023-02-25T19:30:56.259Z,3.37
2023-02-25T19:33:24.243Z,3.31
2023-02-25T19:35:52.270Z,3.25
2023-02-25T19:38:20.677Z,3.31
2023-02-25T19:40:49.005Z,3.19
2023-02-25T19:43:17.901Z,3.26
2023-02-25T19:45:47.141Z,3.25
2023-02-25T19:48:15.043Z,3.24
2023-02-25T19:50:42.739Z,3.27
2023-02-25T19:53:11.310Z,3.21
2023-02-25T19:55:39.158Z,3.21
2023-02-25T19:58:07.222Z,3.18
2023-02-25T20:00:35.243Z,3.32
2023-02-25T20:03:03.482Z,3.27
2023-02-25T20:05:31.527Z,3.21
2023-02-25T20:07:59.290Z,3.30
2023-02-25T20:10:27.459Z,3.33
2023-02-25T20:12:55.192Z,3.20
2023-02-25T20:15:22.964Z,3.33
2023-02-25T20:17:54.967Z,3.40
2023-02-25T20:20:23.897Z,3.37
2023-02-25T20:22:52.344Z,3.35
2023-02-25T20:25:20.625Z,3.37
2023-02-25T20:27:48.370Z,3.41
2023-02-25T20:30:17.814Z,3.48
2023-02-25T20:32:46.278Z,3.29
2023-02-25T20:35:17.690Z,3.42
2023-02-25T20:37:54.434Z,3.42
2023-02-25T20:40:22.276Z,3.45
2023-02-25T20:42:50.473Z,3.41
2023-02-25T20:45:18.575Z,3.42
2023-02-25T20:47:46.484Z,3.44
2023-02-25T20:50:16.024Z,3.36
2023-02-25T20:52:44.102Z,3.43
2023-02-25T20:55:11.830Z,3.50
2023-02-25T20:57:39.880Z,3.49
2023-02-25T21:00:09.168Z,3.49
2023-02-25T21:02:37.066Z,3.48
2023-02-25T21:05:05.032Z,3.57
2023-02-25T21:07:32.876Z,3.48
2023-02-25T21:10:00.710Z,3.55
2023-02-25T21:12:28.536Z,3.60
2023-02-25T21:14:56.096Z,3.60
2023-02-25T21:17:23.926Z,3.55
2023-02-25T21:19:52.087Z,3.63
2023-02-25T21:22:19.731Z,3.64
2023-02-25T21:24:47.181Z,3.60
2023-02-25T21:27:15.295Z,3.64
2023-02-25T21:29:43.354Z,3.63
2023-02-25T21:32:11.547Z,3.66
2023-02-25T21:34:40.031Z,3.63
2023-02-25T21:37:07.780Z,3.56
2023-02-25T21:39:35.737Z,3.54
2023-02-25T21:42:03.747Z,3.51
2023-02-25T21:44:31.249Z,3.49
2023-02-25T21:46:58.786Z,3.51
2023-02-25T21:49:30.878Z,3.50
2023-02-25T21:51:59.476Z,3.51
2023-02-25T21:54:27.495Z,3.53
2023-02-25T21:56:55.029Z,3.58
2023-02-25T21:59:23.384Z,3.55
2023-02-25T22:01:51.736Z,3.60
2023-02-25T22:04:19.746Z,3.60
2023-02-25T22:06:48.917Z,3.64
2023-02-25T22:09:18.103Z,3.67
2023-02-25T22:11:46.204Z,3.65
2023-02-25T22:14:14.158Z,3.57
2023-02-25T22:16:41.692Z,3.53
2023-02-25T22:19:09.485Z,3.52
2023-02-25T22:21:37.055Z,3.53
2023-02-25T22:24:05.542Z,3.60
2023-02-25T22:26:35.542Z,3.65
2023-02-25T22:29:08.807Z,3.62
2023-02-25T22:31:37.087Z,3.63
2023-02-25T22:34:05.691Z,3.65
2023-02-25T22:36:33.244Z,3.58
2023-02-25T22:39:04.784Z,3.58
2023-02-25T22:41:32.353Z,3.53
2023-02-25T22:44:00.476Z,3.49
2023-02-25T22:46:33.329Z,3.51
2023-02-25T22:49:00.849Z,3.44
2023-02-25T22:51:35.766Z,3.33
2023-02-25T22:54:04.820Z,3.49
2023-02-25T22:56:32.665Z,3.46
2023-02-25T22:59:00.506Z,3.40
2023-02-25T23:01:28.575Z,3.30
2023-02-25T23:03:57.260Z,3.26
2023-02-25T23:06:42.108Z,3.36
2023-02-25T23:09:13.435Z,3.40
2023-02-25T23:11:42.577Z,3.40
2023-02-25T23:14:10.329Z,3.43
2023-02-25T23:16:41.513Z,3.36
2023-02-25T23:19:16.926Z,3.40
2023-02-25T23:21:45.571Z,3.41
2023-02-25T23:24:16.529Z,3.33
2023-02-25T23:26:45.669Z,3.41
2023-02-25T23:29:13.784Z,3.41
2023-02-25T23:31:44.974Z,3.38
2023-02-25T23:34:15.352Z,3.40
2023-02-25T23:36:44.114Z,3.21
2023-02-25T23:39:13.039Z,3.33
2023-02-25T23:41:41.481Z,3.40
2023-02-25T23:44:11.467Z,3.42
2023-02-25T23:46:39.567Z,3.37
2023-02-25T23:49:07.566Z,3.35
2023-02-25T23:51:36.214Z,3.38
2023-02-25T23:54:05.618Z,3.40
2023-02-25T23:56:34.179Z,3.39
2023-02-25T23:59:02.061Z,3.30
